X  Kiinni Metar Aviation säätiedot     LIPX Verona-Villafranca Valerio Catullo Airport
Lämpötila
32°C Lämpötila
18°C Kastepiste
43% Kosteus



Tuuli
4 M/S
8 MPH
13 KM/T
7 KTS



130°
EI
Nykyiset olosuhteet

Enimmäkseen pilvistä Enimmäkseen pilvistä
Paine 1014.9 (hPa) - 29.97 (inHg)
Näkyvyys 6 (maili) - 9.7 (km)
Lentokenttä
Lentokentän koodi LIPX

Sijainti: Verona-Villafranca Valerio Catullo Airport
Etäisyys: 0 (km)

Metar:
LIPX 231320Z 13007KT 080V190 9999 SCT030 32/18 Q1015

Aika: 23-07-2024 13:20 CEST